Time;durP1;ratioP1;P1;durP2;ratioP2;P2;SDS_P1;SDS_P2;PMS_P1;PMS_P2;Temp;Humidity;BMP_temperature;BMP_pressure;BME280_temperature;BME280_humidity;BME280_pressure;Samples;Min_cycle;Max_cycle;Signal;HPM_P1;HPM_P2
2021/06/13 00:00:45;;;;;;;12.40;8.00;;;20.50;54.90;;;;;;4939284;29;20112;-70
2021/06/13 00:03:11;;;;;;;14.95;8.68;;;20.50;55.40;;;;;;4922466;29;20411;-70
2021/06/13 00:05:37;;;;;;;14.00;9.00;;;20.50;54.90;;;;;;4940142;29;20047;-70
2021/06/13 00:08:03;;;;;;;13.38;8.65;;;20.50;55.10;;;;;;4938939;29;20055;-70
2021/06/13 00:10:29;;;;;;;13.02;8.20;;;20.50;55.00;;;;;;4938957;29;20039;-70
2021/06/13 00:12:55;;;;;;;16.50;9.20;;;20.50;54.90;;;;;;4919608;29;20118;-70
2021/06/13 00:15:24;;;;;;;16.95;8.88;;;20.40;55.00;;;;;;4936924;29;20142;-70
2021/06/13 00:17:51;;;;;;;15.70;8.95;;;20.40;55.00;;;;;;4939468;29;20891;-70
2021/06/13 00:20:22;;;;;;;15.18;8.73;;;20.40;54.80;;;;;;4938759;29;20067;-69
2021/06/13 00:22:48;;;;;;;15.30;8.48;;;20.40;54.60;;;;;;4939351;29;20273;-70
2021/06/13 00:25:15;;;;;;;14.38;9.18;;;20.40;54.50;;;;;;4939659;29;20043;-70
2021/06/13 00:27:41;;;;;;;13.90;8.30;;;20.40;54.80;;;;;;4937546;29;20556;-70
2021/06/13 00:30:10;;;;;;;13.70;8.20;;;20.30;54.60;;;;;;4942815;29;20102;-70
2021/06/13 00:32:36;;;;;;;15.55;8.68;;;20.30;54.50;;;;;;4942049;29;20208;-70
2021/06/13 00:35:04;;;;;;;15.40;8.70;;;20.30;54.60;;;;;;4941834;29;20106;-71
2021/06/13 00:37:30;;;;;;;13.98;8.18;;;20.20;54.60;;;;;;4942903;29;20496;-70
2021/06/13 00:39:55;;;;;;;16.98;10.48;;;20.20;54.70;;;;;;4942780;29;20106;-70
2021/06/13 00:42:22;;;;;;;16.33;9.00;;;20.20;55.00;;;;;;4943314;29;20035;-70
2021/06/13 00:44:47;;;;;;;17.67;9.65;;;20.20;54.90;;;;;;4941006;29;20123;-70
2021/06/13 00:47:13;;;;;;;17.15;10.20;;;20.10;55.00;;;;;;4925988;29;20118;-70
2021/06/13 00:49:39;;;;;;;17.92;10.45;;;20.20;55.40;;;;;;4942568;29;20066;-70
2021/06/13 00:52:05;;;;;;;14.52;8.90;;;20.20;55.60;;;;;;4925193;29;20047;-70
2021/06/13 00:54:32;;;;;;;15.43;9.43;;;20.20;55.20;;;;;;4942481;29;20036;-71
2021/06/13 00:56:58;;;;;;;16.30;9.90;;;20.20;55.40;;;;;;4941870;29;20648;-70
2021/06/13 00:59:23;;;;;;;17.65;9.85;;;20.20;55.40;;;;;;4941531;29;20039;-70
2021/06/13 01:01:49;;;;;;;19.08;9.82;;;20.10;55.50;;;;;;4924698;29;20110;-70
2021/06/13 01:04:15;;;;;;;17.05;10.10;;;20.10;55.50;;;;;;4940972;28;20043;-71
2021/06/13 01:07:16;;;;;;;17.00;9.43;;;20.10;55.70;;;;;;4941597;29;20039;-70
2021/06/13 01:09:48;;;;;;;17.58;10.60;;;20.00;55.60;;;;;;4943088;29;20776;-70
2021/06/13 01:12:26;;;;;;;18.25;9.80;;;19.90;56.00;;;;;;4943194;29;21049;-72
2021/06/13 01:14:57;;;;;;;18.33;10.35;;;19.90;56.60;;;;;;4941872;29;20498;-72
2021/06/13 01:17:40;;;;;;;18.80;10.50;;;19.90;56.20;;;;;;4944027;29;20039;-72
2021/06/13 01:20:15;;;;;;;18.05;11.13;;;20.00;56.30;;;;;;4942303;29;20031;-70
2021/06/13 01:23:02;;;;;;;16.67;9.88;;;19.90;56.20;;;;;;4934465;29;20047;-71
2021/06/13 01:26:06;;;;;;;18.10;10.25;;;19.90;56.30;;;;;;4942334;29;20606;-71
2021/06/13 01:28:44;;;;;;;;;;;19.90;56.10;;;;;;4941995;29;20042;-72
2021/06/13 01:31:10;;;;;;;17.60;9.77;;;19.80;56.10;;;;;;4941576;29;19922;-70
2021/06/13 01:33:37;;;;;;;16.33;10.05;;;19.80;56.50;;;;;;4942176;29;20470;-71
2021/06/13 01:36:04;;;;;;;16.85;10.00;;;19.80;57.00;;;;;;4940540;29;20628;-69
2021/06/13 01:38:32;;;;;;;18.65;9.75;;;19.80;56.70;;;;;;4939504;29;20160;-70
2021/06/13 01:41:07;;;;;;;14.55;8.95;;;19.80;56.60;;;;;;4921925;29;20061;-72
2021/06/13 01:43:34;;;;;;;15.82;9.80;;;19.80;56.50;;;;;;4941262;29;20702;-73
2021/06/13 01:46:02;;;;;;;18.98;9.77;;;19.70;56.50;;;;;;4944429;29;20032;-70
2021/06/13 01:48:28;;;;;;;17.38;9.88;;;19.70;56.60;;;;;;4943353;29;20066;-71
2021/06/13 01:50:58;;;;;;;17.48;10.13;;;19.70;56.70;;;;;;4940562;29;20671;-70
2021/06/13 01:53:25;;;;;;;13.48;8.57;;;19.70;56.70;;;;;;4942338;29;20126;-70
2021/06/13 01:55:52;;;;;;;14.15;8.60;;;19.70;56.60;;;;;;4940190;29;20040;-70
2021/06/13 01:58:19;;;;;;;14.93;9.00;;;19.70;56.40;;;;;;4942382;29;20055;-70
2021/06/13 02:00:47;;;;;;;13.93;7.57;;;19.80;56.30;;;;;;4940691;29;20039;-71
2021/06/13 02:03:14;;;;;;;15.52;7.65;;;19.70;56.30;;;;;;4942496;29;20039;-70
2021/06/13 02:05:42;;;;;;;14.35;8.18;;;19.70;56.30;;;;;;4940692;29;20500;-70
2021/06/13 02:08:10;;;;;;;14.32;7.53;;;19.70;56.50;;;;;;4937807;29;20685;-70
2021/06/13 02:10:38;;;;;;;13.25;7.32;;;19.70;56.10;;;;;;4941030;29;20043;-71
2021/06/13 02:13:05;;;;;;;15.65;8.02;;;19.70;56.50;;;;;;4922731;29;20035;-71
2021/06/13 02:15:34;;;;;;;12.68;7.57;;;19.60;56.30;;;;;;4925304;29;20141;-72
2021/06/13 02:18:01;;;;;;;12.80;7.80;;;19.60;56.40;;;;;;4941213;29;20063;-72
2021/06/13 02:20:29;;;;;;;14.55;7.97;;;19.60;56.40;;;;;;4941033;29;20051;-71
2021/06/13 02:22:55;;;;;;;11.70;6.88;;;19.60;56.60;;;;;;4940330;29;20089;-70
2021/06/13 02:25:22;;;;;;;13.15;7.32;;;19.60;56.60;;;;;;4924114;29;20082;-70
2021/06/13 02:27:57;;;;;;;12.75;7.05;;;19.60;56.50;;;;;;4941138;29;20089;-70
2021/06/13 02:30:25;;;;;;;13.85;7.07;;;19.60;56.50;;;;;;4941484;29;20050;-70
2021/06/13 02:32:51;;;;;;;13.80;6.85;;;19.60;56.50;;;;;;4940453;29;20039;-70
2021/06/13 02:35:18;;;;;;;13.93;7.45;;;19.50;56.60;;;;;;4940306;29;20031;-70
2021/06/13 02:37:45;;;;;;;12.32;7.18;;;19.60;56.80;;;;;;4938915;29;20043;-70
2021/06/13 02:40:13;;;;;;;10.93;6.72;;;19.60;57.20;;;;;;4924484;29;20035;-70
2021/06/13 02:42:39;;;;;;;11.95;7.22;;;19.60;57.00;;;;;;4941441;29;20043;-70
2021/06/13 02:45:10;;;;;;;9.63;6.72;;;19.60;57.00;;;;;;4922525;29;20039;-66
2021/06/13 02:47:37;;;;;;;12.82;6.60;;;19.60;56.80;;;;;;4941163;29;20071;-66
2021/06/13 02:50:05;;;;;;;14.05;6.53;;;19.60;56.80;;;;;;4939375;29;20930;-66
2021/06/13 02:53:07;;;;;;;13.40;6.75;;;19.60;56.90;;;;;;4941148;29;20123;-66
2021/06/13 02:56:08;;;;;;;10.63;6.28;;;19.60;56.70;;;;;;4939926;29;20473;-65
2021/06/13 02:58:38;;;;;;;11.02;6.65;;;19.60;56.60;;;;;;4915337;29;20052;-66
2021/06/13 03:01:05;;;;;;;10.95;5.97;;;19.60;56.90;;;;;;4939737;29;20047;-70
2021/06/13 03:03:33;;;;;;;11.13;5.75;;;19.50;56.80;;;;;;4938482;29;20399;-69
2021/06/13 03:06:00;;;;;;;11.05;6.35;;;19.50;56.70;;;;;;4938561;29;22217;-69
2021/06/13 03:08:27;;;;;;;13.57;6.97;;;19.50;56.60;;;;;;4938931;29;20378;-70
2021/06/13 03:10:53;;;;;;;11.48;6.55;;;19.50;56.70;;;;;;4939940;29;20126;-69
2021/06/13 03:13:23;;;;;;;11.23;6.18;;;19.40;56.80;;;;;;4940885;29;20047;-69
2021/06/13 03:15:50;;;;;;;9.93;6.05;;;19.40;56.90;;;;;;4938891;29;20412;-69
2021/06/13 03:18:17;;;;;;;12.20;6.55;;;19.40;57.00;;;;;;4940295;29;20106;-71
2021/06/13 03:20:44;;;;;;;10.50;5.93;;;19.40;56.90;;;;;;4939241;29;20027;-70
2021/06/13 03:23:10;;;;;;;10.40;6.22;;;19.40;57.00;;;;;;4938965;29;20099;-69
2021/06/13 03:25:37;;;;;;;8.02;5.72;;;19.40;57.00;;;;;;4925575;29;20058;-69
2021/06/13 03:28:03;;;;;;;8.55;5.47;;;19.40;57.10;;;;;;4939999;29;20043;-70
2021/06/13 03:30:29;;;;;;;8.95;4.90;;;19.40;57.20;;;;;;4922209;29;20039;-70
2021/06/13 03:32:55;;;;;;;11.43;6.20;;;19.40;57.10;;;;;;4940091;29;20041;-68
2021/06/13 03:35:22;;;;;;;10.13;5.47;;;19.50;57.20;;;;;;4922381;29;20040;-70
2021/06/13 03:37:49;;;;;;;9.63;5.53;;;19.50;57.00;;;;;;4939946;29;20047;-70
2021/06/13 03:40:17;;;;;;;9.35;5.50;;;19.40;57.10;;;;;;4940723;29;20118;-70
2021/06/13 03:42:44;;;;;;;9.43;5.00;;;19.40;57.10;;;;;;4937769;29;20538;-69
2021/06/13 03:45:11;;;;;;;9.75;5.70;;;19.40;57.10;;;;;;4938279;29;20119;-71
2021/06/13 03:47:38;;;;;;;8.90;5.07;;;19.40;57.20;;;;;;4940113;29;20075;-70
2021/06/13 03:50:05;;;;;;;11.20;5.10;;;19.40;57.20;;;;;;4938247;29;20515;-70
2021/06/13 03:52:31;;;;;;;9.77;5.30;;;19.40;57.30;;;;;;4938427;29;20055;-70
2021/06/13 03:54:57;;;;;;;12.07;5.75;;;19.40;57.20;;;;;;4938198;29;20047;-69
2021/06/13 03:57:24;;;;;;;8.48;5.22;;;19.40;57.30;;;;;;4939161;29;20680;-69
2021/06/13 03:59:52;;;;;;;10.98;5.22;;;19.30;57.40;;;;;;4937252;29;20069;-69
2021/06/13 04:02:18;;;;;;;10.77;5.45;;;19.40;57.60;;;;;;4924032;28;20040;-69
2021/06/13 04:04:49;;;;;;;11.38;5.55;;;19.40;57.70;;;;;;4943136;29;20039;-68
2021/06/13 04:07:17;;;;;;;11.40;5.22;;;19.40;57.40;;;;;;4942840;29;20043;-69
2021/06/13 04:09:45;;;;;;;10.65;5.38;;;19.40;57.40;;;;;;4925923;29;20039;-69
2021/06/13 04:12:18;;;;;;;11.25;5.32;;;19.40;57.40;;;;;;4942067;29;20046;-71
2021/06/13 04:14:46;;;;;;;9.07;5.30;;;19.40;57.40;;;;;;4942304;29;20437;-69
2021/06/13 04:17:18;;;;;;;11.55;5.55;;;19.40;57.50;;;;;;4942408;29;20032;-69
2021/06/13 04:19:46;;;;;;;7.63;4.53;;;19.40;57.50;;;;;;4941704;29;20313;-70
2021/06/13 04:22:15;;;;;;;7.65;4.55;;;19.40;57.70;;;;;;4942487;29;20054;-70
2021/06/13 04:24:42;;;;;;;8.60;5.18;;;19.40;57.80;;;;;;4940733;29;20051;-69
2021/06/13 04:27:10;;;;;;;7.75;4.90;;;19.50;57.60;;;;;;4943002;29;20040;-69
2021/06/13 04:29:36;;;;;;;9.20;5.28;;;19.50;57.50;;;;;;4942759;29;20050;-69
2021/06/13 04:32:03;;;;;;;11.25;5.03;;;19.50;57.60;;;;;;4942538;29;20035;-68
2021/06/13 04:34:28;;;;;;;7.47;4.70;;;19.60;57.60;;;;;;4943643;29;20063;-69
2021/06/13 04:36:54;;;;;;;7.63;4.75;;;19.60;57.50;;;;;;4925768;29;20040;-69
2021/06/13 04:39:20;;;;;;;10.85;5.72;;;19.70;57.40;;;;;;4942594;29;20117;-70
2021/06/13 04:41:46;;;;;;;11.30;5.88;;;19.70;57.10;;;;;;4942522;29;20091;-72
2021/06/13 04:44:11;;;;;;;6.95;4.68;;;19.80;56.90;;;;;;4944696;29;20043;-72
2021/06/13 04:46:37;;;;;;;8.23;4.85;;;19.80;56.70;;;;;;4942179;29;20165;-71
2021/06/13 04:49:03;;;;;;;7.93;4.45;;;19.80;56.70;;;;;;4926118;29;20035;-72
2021/06/13 04:51:30;;;;;;;7.78;4.70;;;19.80;56.70;;;;;;4941971;29;20040;-69
2021/06/13 04:54:02;;;;;;;8.05;4.55;;;19.90;56.50;;;;;;4943944;29;20484;-71
2021/06/13 04:57:08;;;;;;;9.57;4.70;;;19.90;56.40;;;;;;4942200;29;20404;-71
2021/06/13 04:59:34;;;;;;;7.88;4.78;;;19.90;56.40;;;;;;4916321;29;20051;-72
2021/06/13 05:02:00;;;;;;;8.88;4.55;;;19.80;56.40;;;;;;4943281;29;20038;-70
2021/06/13 05:04:26;;;;;;;7.25;4.63;;;19.90;56.60;;;;;;4940425;28;20039;-70
2021/06/13 05:06:52;;;;;;;8.00;4.25;;;19.90;56.50;;;;;;4942258;29;20058;-70
2021/06/13 05:09:18;;;;;;;8.02;4.32;;;19.90;56.50;;;;;;4943668;29;20484;-71
2021/06/13 05:11:44;;;;;;;7.03;4.18;;;20.00;56.30;;;;;;4940554;29;20476;-65
2021/06/13 05:14:10;;;;;;;7.72;4.55;;;20.00;56.30;;;;;;4942292;28;20051;-65
2021/06/13 05:16:38;;;;;;;7.80;4.40;;;20.00;56.30;;;;;;4942120;29;20054;-65
2021/06/13 05:19:04;;;;;;;8.35;4.50;;;20.10;56.30;;;;;;4941369;29;20408;-66
2021/06/13 05:21:29;;;;;;;8.77;4.35;;;20.10;56.20;;;;;;4941335;29;20039;-65
2021/06/13 05:23:55;;;;;;;6.95;4.10;;;20.10;56.00;;;;;;4942512;29;20055;-65
2021/06/13 05:26:21;;;;;;;9.10;4.22;;;20.10;56.20;;;;;;4940832;29;20035;-65
2021/06/13 05:28:47;;;;;;;7.05;4.05;;;20.20;56.20;;;;;;4941457;29;20036;-66
2021/06/13 05:31:13;;;;;;;13.63;3.88;;;20.30;56.00;;;;;;4941480;29;20043;-67
2021/06/13 05:33:39;;;;;;;12.23;3.88;;;20.30;55.90;;;;;;4941006;29;20043;-66
2021/06/13 05:36:05;;;;;;;8.57;4.05;;;20.40;55.70;;;;;;4941716;29;20031;-66
2021/06/13 05:38:30;;;;;;;11.63;4.13;;;20.40;55.20;;;;;;4924342;29;20142;-68
2021/06/13 05:40:56;;;;;;;9.73;4.20;;;20.40;55.00;;;;;;4941458;29;20067;-66
2021/06/13 05:43:22;;;;;;;12.60;4.40;;;20.40;54.80;;;;;;4941911;29;20385;-68
2021/06/13 05:45:48;;;;;;;9.95;3.70;;;20.40;54.80;;;;;;4938984;29;20044;-68
2021/06/13 05:48:14;;;;;;;10.32;4.25;;;20.40;55.20;;;;;;4923643;29;20047;-66
2021/06/13 05:50:40;;;;;;;13.77;4.38;;;20.40;56.10;;;;;;4941509;29;20407;-66
2021/06/13 05:53:07;;;;;;;10.77;3.90;;;20.50;56.90;;;;;;4941551;29;20046;-66
2021/06/13 05:55:35;;;;;;;14.52;4.32;;;20.50;57.80;;;;;;4940874;29;20035;-65
2021/06/13 05:58:01;;;;;;;14.07;4.78;;;20.40;57.60;;;;;;4939991;29;20034;-67
2021/06/13 06:00:30;;;;;;;12.43;5.28;;;20.40;58.00;;;;;;4942493;29;20066;-66
2021/06/13 06:02:56;;;;;;;11.35;4.32;;;20.40;57.90;;;;;;4940700;29;20051;-66
2021/06/13 06:05:23;;;;;;;11.95;4.30;;;20.40;57.60;;;;;;4941243;29;20039;-64
2021/06/13 06:07:50;;;;;;;14.20;4.40;;;20.50;57.10;;;;;;4940745;29;20044;-66
2021/06/13 06:10:17;;;;;;;15.07;4.95;;;20.50;56.70;;;;;;4942044;29;20063;-66
2021/06/13 06:12:44;;;;;;;12.65;4.80;;;20.50;55.30;;;;;;4941317;29;20403;-61
2021/06/13 06:15:14;;;;;;;11.68;5.10;;;20.50;55.70;;;;;;4940301;29;20042;-62
2021/06/13 06:17:40;;;;;;;10.82;4.38;;;20.50;56.10;;;;;;4940810;29;20122;-61
2021/06/13 06:20:07;;;;;;;14.95;4.97;;;20.50;55.60;;;;;;4940338;29;20042;-62
2021/06/13 06:22:33;;;;;;;8.30;4.05;;;20.50;55.60;;;;;;4940299;29;20043;-63
2021/06/13 06:24:59;;;;;;;12.98;4.25;;;20.50;55.60;;;;;;4941765;29;20050;-64
2021/06/13 06:27:25;;;;;;;13.75;3.92;;;20.60;55.50;;;;;;4940402;29;20047;-61
2021/06/13 06:29:51;;;;;;;8.10;3.42;;;20.60;55.20;;;;;;4941256;29;20119;-61
2021/06/13 06:32:16;;;;;;;9.23;3.85;;;20.70;54.80;;;;;;4940873;29;20035;-62
2021/06/13 06:34:42;;;;;;;7.50;3.35;;;20.70;54.10;;;;;;4939391;29;20047;-62
2021/06/13 06:37:08;;;;;;;7.85;3.75;;;20.80;54.00;;;;;;4941245;29;20511;-61
2021/06/13 06:39:34;;;;;;;9.50;3.45;;;21.10;53.50;;;;;;4940069;29;20044;-62
2021/06/13 06:42:00;;;;;;;11.93;3.72;;;21.40;52.20;;;;;;4939447;29;20130;-61
2021/06/13 06:44:26;;;;;;;8.23;3.50;;;21.70;51.90;;;;;;4939250;29;20051;-61
2021/06/13 06:46:52;;;;;;;10.00;4.20;;;22.10;50.40;;;;;;4941025;29;20103;-61
2021/06/13 06:49:18;;;;;;;10.32;3.78;;;22.40;49.20;;;;;;4938906;29;20121;-63
2021/06/13 06:51:44;;;;;;;8.80;4.00;;;22.60;48.10;;;;;;4939422;29;20046;-64
2021/06/13 06:54:10;;;;;;;7.55;3.13;;;22.70;47.40;;;;;;4940157;29;20423;-64
2021/06/13 06:56:36;;;;;;;8.45;3.42;;;22.90;47.30;;;;;;4939943;29;20047;-65
2021/06/13 06:59:01;;;;;;;8.63;4.18;;;23.00;46.50;;;;;;4939082;29;20311;-64
2021/06/13 07:01:27;;;;;;;6.20;3.10;;;23.10;46.30;;;;;;4940159;29;20373;-64
2021/06/13 07:03:53;;;;;;;7.40;3.78;;;23.30;45.90;;;;;;4923354;29;20513;-64
2021/06/13 07:06:19;;;;;;;6.40;2.78;;;23.50;45.30;;;;;;4939994;29;20036;-64
2021/06/13 07:08:45;;;;;;;9.07;3.60;;;23.60;44.40;;;;;;4939967;29;20039;-64
2021/06/13 07:11:11;;;;;;;6.80;3.75;;;23.80;44.30;;;;;;4939963;29;20047;-64
2021/06/13 07:13:37;;;;;;;7.60;3.85;;;23.90;43.80;;;;;;4940604;29;20043;-64
2021/06/13 07:16:04;;;;;;;6.90;3.28;;;24.00;43.40;;;;;;4939901;29;20047;-63
2021/06/13 07:18:29;;;;;;;9.23;3.03;;;24.20;42.70;;;;;;4938624;29;20043;-64
2021/06/13 07:20:55;;;;;;;6.68;3.13;;;24.30;42.50;;;;;;4940514;29;20407;-61
2021/06/13 07:23:22;;;;;;;5.03;2.78;;;24.40;41.90;;;;;;4940082;29;20054;-65
2021/06/13 07:25:47;;;;;;;8.05;3.28;;;24.40;41.30;;;;;;4922662;29;20035;-65
2021/06/13 07:28:14;;;;;;;7.35;2.80;;;24.60;41.00;;;;;;4939540;29;20464;-67
2021/06/13 07:30:40;;;;;;;10.30;3.30;;;24.60;40.90;;;;;;4939066;29;20043;-65
2021/06/13 07:33:06;;;;;;;7.45;3.30;;;24.60;41.10;;;;;;4939290;29;20035;-64
2021/06/13 07:35:32;;;;;;;17.42;3.05;;;24.80;41.20;;;;;;4922917;29;20109;-68
2021/06/13 07:38:00;;;;;;;6.60;3.10;;;24.80;40.60;;;;;;4939197;29;20134;-66
2021/06/13 07:40:28;;;;;;;6.97;2.92;;;24.90;40.60;;;;;;4936966;29;20046;-64
2021/06/13 07:42:54;;;;;;;5.60;3.05;;;25.00;40.70;;;;;;4921059;29;20178;-64
2021/06/13 07:45:20;;;;;;;9.32;3.65;;;25.20;40.70;;;;;;4938903;29;20146;-64
2021/06/13 07:47:47;;;;;;;12.05;3.15;;;25.00;40.30;;;;;;4938208;29;20035;-60
2021/06/13 07:50:14;;;;;;;9.35;3.70;;;24.90;40.70;;;;;;4939355;29;20054;-60
2021/06/13 07:52:41;;;;;;;7.95;3.53;;;24.90;40.80;;;;;;4932621;29;20058;-59
2021/06/13 07:55:08;;;;;;;7.97;3.33;;;25.00;40.00;;;;;;4938664;29;20040;-59
2021/06/13 07:57:34;;;;;;;7.07;2.70;;;24.90;40.20;;;;;;4940072;29;20054;-60
2021/06/13 08:00:00;;;;;;;3.88;2.50;;;24.90;40.20;;;;;;4939439;29;20564;-59
2021/06/13 08:02:26;;;;;;;6.35;3.63;;;25.00;40.00;;;;;;4938488;28;20120;-60
2021/06/13 08:04:56;;;;;;;7.38;3.13;;;25.20;40.40;;;;;;4938472;29;20450;-60
2021/06/13 08:07:21;;;;;;;6.65;3.00;;;25.20;40.10;;;;;;4941112;29;20039;-60
2021/06/13 08:09:47;;;;;;;6.22;2.67;;;25.10;40.50;;;;;;4921954;29;20048;-60
2021/06/13 08:12:14;;;;;;;9.05;3.28;;;25.20;40.70;;;;;;4938924;29;20042;-61
2021/06/13 08:14:40;;;;;;;9.98;2.95;;;25.30;40.50;;;;;;4931556;29;20050;-60
2021/06/13 08:17:06;;;;;;;6.70;3.15;;;25.50;40.40;;;;;;4937380;29;20047;-59
2021/06/13 08:19:32;;;;;;;5.47;2.40;;;25.60;40.20;;;;;;4939070;29;20046;-59
2021/06/13 08:21:57;;;;;;;5.53;2.63;;;25.80;40.20;;;;;;4939713;29;20040;-60
2021/06/13 08:24:23;;;;;;;4.03;2.08;;;25.90;40.00;;;;;;4939222;29;20051;-60
2021/06/13 08:26:49;;;;;;;88.57;73.22;;;26.00;39.70;;;;;;4939185;29;20500;-60
2021/06/13 08:29:15;;;;;;;13.07;9.50;;;26.20;39.50;;;;;;4939117;29;20042;-60
2021/06/13 08:31:41;;;;;;;7.38;3.47;;;26.30;38.70;;;;;;4939122;29;20031;-60
2021/06/13 08:34:07;;;;;;;7.72;3.28;;;26.40;38.60;;;;;;4938717;29;20090;-59
2021/06/13 08:36:33;;;;;;;6.93;2.90;;;26.50;38.50;;;;;;4921494;29;20138;-60
2021/06/13 08:38:59;;;;;;;5.43;2.30;;;26.60;39.10;;;;;;4940217;29;20042;-60
2021/06/13 08:41:25;;;;;;;5.90;3.00;;;26.70;38.60;;;;;;4938197;29;20095;-61
2021/06/13 08:43:52;;;;;;;7.18;3.00;;;26.70;37.70;;;;;;4937728;29;20035;-61
2021/06/13 08:46:19;;;;;;;7.13;2.90;;;26.70;37.50;;;;;;4922562;29;20027;-61
2021/06/13 08:48:46;;;;;;;5.38;2.97;;;26.70;37.20;;;;;;4938286;28;20101;-60
2021/06/13 08:51:13;;;;;;;6.00;2.63;;;26.70;36.80;;;;;;4941755;29;20456;-60
2021/06/13 08:53:44;;;;;;;6.80;3.05;;;26.60;37.90;;;;;;4943115;29;20051;-60
2021/06/13 08:56:17;;;;;;;6.93;2.85;;;26.50;37.30;;;;;;4940691;29;20046;-60
2021/06/13 08:58:44;;;;;;;5.13;2.55;;;26.40;37.00;;;;;;4941796;28;20142;-60
2021/06/13 09:01:12;;;;;;;6.88;3.10;;;26.30;37.70;;;;;;4942046;29;20161;-60
2021/06/13 09:03:40;;;;;;;6.13;2.67;;;26.40;37.40;;;;;;4942310;29;20102;-60
2021/06/13 09:06:06;;;;;;;6.18;3.40;;;26.50;37.70;;;;;;4941939;29;20045;-60
2021/06/13 09:08:36;;;;;;;7.38;3.30;;;26.70;37.70;;;;;;4941773;29;20126;-61
2021/06/13 09:11:03;;;;;;;6.40;3.00;;;26.80;37.60;;;;;;4924927;29;20741;-60
2021/06/13 09:13:30;;;;;;;5.97;2.78;;;26.80;37.90;;;;;;4942828;29;20541;-60
2021/06/13 09:16:02;;;;;;;6.07;3.17;;;27.00;38.10;;;;;;4941768;29;20591;-60
2021/06/13 09:18:35;;;;;;;5.43;2.58;;;27.10;37.60;;;;;;4942135;29;20856;-61
2021/06/13 09:21:07;;;;;;;6.15;3.42;;;27.20;37.60;;;;;;4941590;29;20052;-60
2021/06/13 09:23:35;;;;;;;5.45;2.50;;;27.30;37.70;;;;;;4942710;29;20416;-60
2021/06/13 09:26:08;;;;;;;6.93;3.25;;;27.30;36.90;;;;;;4941780;29;20050;-60
2021/06/13 09:28:39;;;;;;;6.28;3.83;;;27.30;37.20;;;;;;4941066;29;20039;-60
2021/06/13 09:31:13;;;;;;;5.43;3.17;;;27.50;37.10;;;;;;4940793;29;20047;-60
2021/06/13 09:33:39;;;;;;;8.85;2.90;;;27.50;37.40;;;;;;4942250;29;20048;-60
2021/06/13 09:36:06;;;;;;;7.82;3.05;;;27.50;37.20;;;;;;4941587;29;20123;-60
2021/06/13 09:38:33;;;;;;;6.93;3.85;;;27.20;37.40;;;;;;4941087;29;20032;-59
2021/06/13 09:41:04;;;;;;;10.90;4.75;;;27.10;38.20;;;;;;4940635;29;20040;-60
2021/06/13 09:43:32;;;;;;;12.40;5.68;;;27.00;38.50;;;;;;4924622;29;20043;-61
2021/06/13 09:46:10;;;;;;;10.32;4.55;;;26.90;39.00;;;;;;4940220;29;20047;-65
2021/06/13 09:48:40;;;;;;;11.88;4.82;;;26.90;38.70;;;;;;4924507;29;20083;-65
2021/06/13 09:51:27;;;;;;;6.47;3.30;;;26.90;39.00;;;;;;4941205;29;20384;-65
2021/06/13 09:53:55;;;;;;;7.00;3.22;;;27.00;38.90;;;;;;4942569;29;20039;-64
2021/06/13 09:56:35;;;;;;;5.50;2.90;;;27.10;38.70;;;;;;4940782;29;20062;-65
2021/06/13 09:59:13;;;;;;;7.53;3.45;;;27.20;38.60;;;;;;4941143;28;20496;-65
2021/06/13 10:01:43;;;;;;;9.73;3.80;;;27.30;38.20;;;;;;4940394;29;20043;-68
2021/06/13 10:04:18;;;;;;;7.82;3.50;;;27.20;38.30;;;;;;4939656;28;20059;-65
2021/06/13 10:06:49;;;;;;;8.15;3.50;;;27.00;38.40;;;;;;4941372;29;20035;-63
2021/06/13 10:09:16;;;;;;;7.88;3.60;;;26.70;39.00;;;;;;4939525;29;20050;-63
2021/06/13 10:11:43;;;;;;;7.28;3.40;;;26.60;39.50;;;;;;4940615;29;20048;-63
2021/06/13 10:14:13;;;;;;;8.52;3.47;;;26.60;39.50;;;;;;4939040;29;20040;-63
2021/06/13 10:16:50;;;;;;;6.85;3.10;;;26.70;40.00;;;;;;4941529;29;20048;-63
2021/06/13 10:19:24;;;;;;;10.98;3.47;;;26.70;40.10;;;;;;4939809;29;20530;-63
2021/06/13 10:21:52;;;;;;;7.32;3.65;;;26.60;39.80;;;;;;4939977;29;20058;-63
2021/06/13 10:24:20;;;;;;;9.65;3.92;;;26.30;38.80;;;;;;4941224;29;20051;-66
2021/06/13 10:26:52;;;;;;;12.68;5.30;;;26.30;39.50;;;;;;4921541;29;20070;-67
2021/06/13 10:29:19;;;;;;;7.22;3.97;;;26.30;40.30;;;;;;4940444;29;20070;-65
2021/06/13 10:31:49;;;;;;;6.90;3.58;;;26.20;40.30;;;;;;4940087;29;20070;-65
2021/06/13 10:34:16;;;;;;;9.60;4.05;;;26.00;41.00;;;;;;4939372;29;20075;-65
2021/06/13 10:36:42;;;;;;;8.20;4.53;;;26.10;40.90;;;;;;4939840;29;20050;-66
2021/06/13 10:39:14;;;;;;;8.15;4.30;;;26.10;41.00;;;;;;4940751;29;20258;-65
2021/06/13 10:41:41;;;;;;;12.20;5.07;;;26.10;41.50;;;;;;4939657;29;20070;-66
2021/06/13 10:44:31;;;;;;;10.20;5.32;;;26.00;41.60;;;;;;4925172;29;20046;-67
2021/06/13 10:47:15;;;;;;;9.55;5.03;;;26.00;41.80;;;;;;4938124;29;20063;-67
2021/06/13 10:49:42;;;;;;;7.75;4.28;;;25.90;41.90;;;;;;4921843;29;20424;-65
2021/06/13 10:52:18;;;;;;;12.45;5.20;;;25.80;41.50;;;;;;4923378;29;20050;-65
2021/06/13 10:54:53;;;;;;;8.90;3.75;;;26.00;41.70;;;;;;4941006;29;20039;-67
2021/06/13 10:57:18;;;;;;;7.68;4.05;;;26.20;41.40;;;;;;4941568;29;20049;-64
2021/06/13 10:59:58;;;;;;;11.13;4.50;;;26.30;41.60;;;;;;4939668;29;20035;-64
2021/06/13 11:02:26;;;;;;;7.15;3.50;;;26.30;41.40;;;;;;4923114;29;20035;-64
2021/06/13 11:05:01;;;;;;;7.22;3.38;;;26.20;41.20;;;;;;4937752;29;20039;-63
2021/06/13 11:07:27;;;;;;;7.38;4.18;;;26.20;41.00;;;;;;4938631;29;20222;-66
2021/06/13 11:13:09;;;;;;;6.90;3.70;;;26.50;40.60;;;;;;4938458;28;20040;-67
2021/06/13 11:15:38;;;;;;;9.57;3.40;;;26.70;40.80;;;;;;4927757;29;20504;-67
2021/06/13 11:18:22;;;;;;;6.65;3.25;;;26.60;40.80;;;;;;4920897;29;20469;-67
2021/06/13 11:20:53;;;;;;;6.47;3.63;;;26.70;40.90;;;;;;4941381;29;20031;-67
2021/06/13 11:23:21;;;;;;;10.30;3.50;;;26.90;40.70;;;;;;4938903;29;20047;-66
2021/06/13 11:25:49;;;;;;;10.38;3.63;;;26.80;40.50;;;;;;4920512;29;20055;-65
2021/06/13 11:28:33;;;;;;;7.15;4.03;;;26.60;40.50;;;;;;4939087;29;20051;-66
2021/06/13 11:31:08;;;;;;;5.78;3.22;;;26.40;40.80;;;;;;4922205;29;20044;-65
2021/06/13 11:33:40;;;;;;;7.10;3.60;;;26.20;41.20;;;;;;4921478;29;20031;-65
2021/06/13 11:36:15;;;;;;;8.07;3.47;;;25.90;41.50;;;;;;4940799;29;20492;-65
2021/06/13 11:38:42;;;;;;;8.57;3.80;;;25.80;41.80;;;;;;4938695;29;20042;-67
2021/06/13 11:41:08;;;;;;;7.03;3.28;;;25.80;41.70;;;;;;4938769;29;20062;-68
2021/06/13 11:43:37;;;;;;;7.80;4.03;;;26.00;41.90;;;;;;4938347;29;20596;-67
2021/06/13 11:46:07;;;;;;;9.05;3.55;;;26.20;41.70;;;;;;4937938;29;20040;-66
2021/06/13 11:48:35;;;;;;;6.32;3.45;;;26.20;41.40;;;;;;4940019;29;20039;-64
2021/06/13 11:51:14;;;;;;;5.28;3.15;;;26.20;41.60;;;;;;4939755;29;20050;-67
2021/06/13 11:53:50;;;;;;;7.70;3.15;;;26.30;41.80;;;;;;4937935;29;20062;-67
2021/06/13 11:56:31;;;;;;;9.82;3.72;;;26.30;41.50;;;;;;4937558;29;20032;-64
2021/06/13 11:59:17;;;;;;;6.00;3.95;;;26.30;40.80;;;;;;4938061;29;20039;-65
2021/06/13 12:01:46;;;;;;;6.55;3.28;;;26.30;41.00;;;;;;4925868;29;20142;-70
2021/06/13 12:04:14;;;;;;;8.32;3.47;;;26.20;41.30;;;;;;4939563;28;20183;-68
2021/06/13 12:06:42;;;;;;;6.90;3.83;;;26.20;40.90;;;;;;4938329;29;20403;-68
2021/06/13 12:09:09;;;;;;;6.97;3.40;;;26.20;41.20;;;;;;4939227;29;20043;-68
2021/06/13 12:11:55;;;;;;;8.90;3.35;;;26.30;40.70;;;;;;4939587;29;20515;-67
2021/06/13 12:14:31;;;;;;;7.53;3.83;;;26.40;40.50;;;;;;4939344;29;20114;-67
2021/06/13 12:16:59;;;;;;;6.63;3.15;;;26.40;41.30;;;;;;4938016;29;20042;-68
2021/06/13 12:19:30;;;;;;;7.28;3.58;;;26.50;40.90;;;;;;4937375;29;20046;-68
2021/06/13 12:22:21;;;;;;;5.30;2.75;;;26.50;40.20;;;;;;4938148;29;20058;-67
2021/06/13 12:27:27;;;;;;;6.20;3.08;;;26.40;40.10;;;;;;4941919;29;20032;-68
2021/06/13 12:29:54;;;;;;;5.50;2.92;;;26.50;39.90;;;;;;4941178;29;20050;-67
2021/06/13 12:32:20;;;;;;;5.93;2.72;;;26.50;40.10;;;;;;4925378;29;20126;-67
2021/06/13 12:34:52;;;;;;;6.18;3.22;;;26.40;39.30;;;;;;4944235;29;20126;-67
2021/06/13 12:37:19;;;;;;;6.30;3.35;;;26.30;40.00;;;;;;4941411;29;20036;-67
2021/06/13 12:40:01;;;;;;;5.25;3.22;;;26.30;39.90;;;;;;4910030;29;20070;-67
2021/06/13 12:42:27;;;;;;;6.93;3.08;;;26.30;39.80;;;;;;4942792;29;20051;-70
2021/06/13 12:45:11;;;;;;;7.28;3.25;;;26.20;40.00;;;;;;4941978;29;20480;-70
2021/06/13 12:47:41;;;;;;;5.20;2.85;;;26.30;40.40;;;;;;4926042;29;20098;-71
2021/06/13 12:50:09;;;;;;;6.82;3.10;;;26.20;40.40;;;;;;4923050;29;20035;-70
2021/06/13 12:52:37;;;;;;;5.60;2.88;;;26.20;40.30;;;;;;4942449;29;20043;-70
2021/06/13 12:55:05;;;;;;;5.80;2.95;;;26.30;40.40;;;;;;4925203;29;20083;-71
2021/06/13 12:57:33;;;;;;;6.22;3.30;;;26.20;40.40;;;;;;4939965;29;20039;-70